sensor_id;sensor_type;location;lat;lon;timestamp;P1;durP1;ratioP1;P2;durP2;ratioP2
51312;SDS011;37397;53.226;10.400;2023-09-19T00:01:43;3.75;;;1.70;;
51312;SDS011;37397;53.226;10.400;2023-09-19T00:04:12;4.55;;;1.90;;
51312;SDS011;37397;53.226;10.400;2023-09-19T00:06:39;3.17;;;1.90;;
51312;SDS011;37397;53.226;10.400;2023-09-19T00:09:05;3.33;;;1.60;;
51312;SDS011;37397;53.226;10.400;2023-09-19T00:11:37;4.45;;;2.08;;
51312;SDS011;37397;53.226;10.400;2023-09-19T00:14:04;3.67;;;1.90;;
51312;SDS011;37397;53.226;10.400;2023-09-19T00:16:35;4.53;;;2.00;;
51312;SDS011;37397;53.226;10.400;2023-09-19T00:19:02;4.40;;;1.90;;
51312;SDS011;37397;53.226;10.400;2023-09-19T00:21:31;2.95;;;1.98;;
51312;SDS011;37397;53.226;10.400;2023-09-19T00:23:58;4.03;;;2.03;;
51312;SDS011;37397;53.226;10.400;2023-09-19T00:26:24;3.90;;;2.05;;
51312;SDS011;37397;53.226;10.400;2023-09-19T00:28:53;5.50;;;2.10;;
51312;SDS011;37397;53.226;10.400;2023-09-19T00:31:20;4.63;;;1.98;;
51312;SDS011;37397;53.226;10.400;2023-09-19T00:33:52;5.20;;;1.85;;
51312;SDS011;37397;53.226;10.400;2023-09-19T00:36:19;2.65;;;1.80;;
51312;SDS011;37397;53.226;10.400;2023-09-19T00:38:46;3.78;;;1.90;;
51312;SDS011;37397;53.226;10.400;2023-09-19T00:41:13;2.95;;;1.58;;
51312;SDS011;37397;53.226;10.400;2023-09-19T00:43:39;4.50;;;1.90;;
51312;SDS011;37397;53.226;10.400;2023-09-19T00:46:07;4.00;;;1.95;;
51312;SDS011;37397;53.226;10.400;2023-09-19T00:48:37;2.90;;;1.90;;
51312;SDS011;37397;53.226;10.400;2023-09-19T00:51:07;3.17;;;2.00;;
51312;SDS011;37397;53.226;10.400;2023-09-19T00:53:34;2.40;;;1.70;;
51312;SDS011;37397;53.226;10.400;2023-09-19T00:56:02;4.00;;;2.33;;
51312;SDS011;37397;53.226;10.400;2023-09-19T00:58:31;4.22;;;2.03;;
51312;SDS011;37397;53.226;10.400;2023-09-19T01:01:00;4.55;;;2.42;;
51312;SDS011;37397;53.226;10.400;2023-09-19T01:03:27;4.90;;;2.35;;
51312;SDS011;37397;53.226;10.400;2023-09-19T01:05:54;5.57;;;2.50;;
51312;SDS011;37397;53.226;10.400;2023-09-19T01:08:21;5.68;;;2.45;;
51312;SDS011;37397;53.226;10.400;2023-09-19T01:10:51;6.20;;;2.40;;
51312;SDS011;37397;53.226;10.400;2023-09-19T01:13:24;6.55;;;2.60;;
51312;SDS011;37397;53.226;10.400;2023-09-19T01:15:58;6.40;;;2.60;;
51312;SDS011;37397;53.226;10.400;2023-09-19T01:21:27;6.55;;;2.53;;
51312;SDS011;37397;53.226;10.400;2023-09-19T01:24:07;6.05;;;2.80;;
51312;SDS011;37397;53.226;10.400;2023-09-19T01:29:51;6.55;;;2.58;;
51312;SDS011;37397;53.226;10.400;2023-09-19T01:32:20;5.28;;;2.58;;
51312;SDS011;37397;53.226;10.400;2023-09-19T01:34:51;5.80;;;2.45;;
51312;SDS011;37397;53.226;10.400;2023-09-19T01:37:20;5.32;;;2.42;;
51312;SDS011;37397;53.226;10.400;2023-09-19T01:39:52;7.22;;;2.92;;
51312;SDS011;37397;53.226;10.400;2023-09-19T01:42:28;8.13;;;2.85;;
51312;SDS011;37397;53.226;10.400;2023-09-19T01:45:03;4.88;;;2.67;;
51312;SDS011;37397;53.226;10.400;2023-09-19T01:47:36;5.32;;;2.80;;
51312;SDS011;37397;53.226;10.400;2023-09-19T01:50:11;7.80;;;3.33;;
51312;SDS011;37397;53.226;10.400;2023-09-19T01:52:47;5.43;;;2.80;;
51312;SDS011;37397;53.226;10.400;2023-09-19T01:55:20;7.25;;;2.78;;
51312;SDS011;37397;53.226;10.400;2023-09-19T01:57:51;4.85;;;2.60;;
51312;SDS011;37397;53.226;10.400;2023-09-19T02:00:31;6.95;;;3.20;;
51312;SDS011;37397;53.226;10.400;2023-09-19T02:03:00;5.95;;;2.80;;
51312;SDS011;37397;53.226;10.400;2023-09-19T02:05:27;7.75;;;3.10;;
51312;SDS011;37397;53.226;10.400;2023-09-19T02:07:54;5.45;;;3.33;;
51312;SDS011;37397;53.226;10.400;2023-09-19T02:10:22;5.57;;;3.17;;
51312;SDS011;37397;53.226;10.400;2023-09-19T02:12:49;5.70;;;3.00;;
51312;SDS011;37397;53.226;10.400;2023-09-19T02:15:17;8.88;;;3.75;;
51312;SDS011;37397;53.226;10.400;2023-09-19T02:17:43;6.30;;;3.45;;
51312;SDS011;37397;53.226;10.400;2023-09-19T02:20:11;4.80;;;2.80;;
51312;SDS011;37397;53.226;10.400;2023-09-19T02:22:41;9.07;;;2.90;;
51312;SDS011;37397;53.226;10.400;2023-09-19T02:25:08;6.47;;;2.60;;
51312;SDS011;37397;53.226;10.400;2023-09-19T02:27:35;6.55;;;3.10;;
51312;SDS011;37397;53.226;10.400;2023-09-19T02:30:02;7.90;;;3.10;;
51312;SDS011;37397;53.226;10.400;2023-09-19T02:32:30;7.10;;;3.03;;
51312;SDS011;37397;53.226;10.400;2023-09-19T02:34:57;6.47;;;2.60;;
51312;SDS011;37397;53.226;10.400;2023-09-19T02:37:25;6.28;;;2.85;;
51312;SDS011;37397;53.226;10.400;2023-09-19T02:39:51;10.68;;;3.08;;
51312;SDS011;37397;53.226;10.400;2023-09-19T02:42:18;7.57;;;3.08;;
51312;SDS011;37397;53.226;10.400;2023-09-19T02:44:44;5.65;;;2.85;;
51312;SDS011;37397;53.226;10.400;2023-09-19T02:47:13;8.02;;;3.00;;
51312;SDS011;37397;53.226;10.400;2023-09-19T02:49:41;6.57;;;3.28;;
51312;SDS011;37397;53.226;10.400;2023-09-19T02:52:09;10.93;;;3.08;;
51312;SDS011;37397;53.226;10.400;2023-09-19T02:54:37;6.35;;;2.78;;
51312;SDS011;37397;53.226;10.400;2023-09-19T02:57:04;6.80;;;2.97;;
51312;SDS011;37397;53.226;10.400;2023-09-19T02:59:33;7.93;;;2.92;;
51312;SDS011;37397;53.226;10.400;2023-09-19T03:02:00;9.43;;;3.28;;
51312;SDS011;37397;53.226;10.400;2023-09-19T03:04:27;9.60;;;2.72;;
51312;SDS011;37397;53.226;10.400;2023-09-19T03:06:53;7.88;;;2.90;;
51312;SDS011;37397;53.226;10.400;2023-09-19T03:09:25;7.25;;;3.03;;
51312;SDS011;37397;53.226;10.400;2023-09-19T03:11:52;6.35;;;3.10;;
51312;SDS011;37397;53.226;10.400;2023-09-19T03:14:18;6.57;;;3.08;;
51312;SDS011;37397;53.226;10.400;2023-09-19T03:16:47;9.27;;;3.10;;
51312;SDS011;37397;53.226;10.400;2023-09-19T03:19:14;6.95;;;3.35;;
51312;SDS011;37397;53.226;10.400;2023-09-19T03:21:42;7.47;;;3.17;;
51312;SDS011;37397;53.226;10.400;2023-09-19T03:24:09;7.68;;;2.78;;
51312;SDS011;37397;53.226;10.400;2023-09-19T03:26:35;7.07;;;2.80;;
51312;SDS011;37397;53.226;10.400;2023-09-19T03:29:05;6.30;;;2.63;;
51312;SDS011;37397;53.226;10.400;2023-09-19T03:31:37;8.25;;;2.72;;
51312;SDS011;37397;53.226;10.400;2023-09-19T03:34:06;6.35;;;2.88;;
51312;SDS011;37397;53.226;10.400;2023-09-19T03:36:33;9.80;;;2.75;;
51312;SDS011;37397;53.226;10.400;2023-09-19T03:39:00;10.02;;;2.80;;
51312;SDS011;37397;53.226;10.400;2023-09-19T03:41:27;6.18;;;2.38;;
51312;SDS011;37397;53.226;10.400;2023-09-19T03:43:54;6.00;;;2.70;;
51312;SDS011;37397;53.226;10.400;2023-09-19T03:46:20;7.32;;;2.35;;
51312;SDS011;37397;53.226;10.400;2023-09-19T03:48:48;6.13;;;2.28;;
51312;SDS011;37397;53.226;10.400;2023-09-19T03:51:14;5.88;;;2.20;;
51312;SDS011;37397;53.226;10.400;2023-09-19T03:53:41;6.45;;;2.40;;
51312;SDS011;37397;53.226;10.400;2023-09-19T03:56:08;6.53;;;2.47;;
51312;SDS011;37397;53.226;10.400;2023-09-19T03:58:35;5.82;;;2.05;;
51312;SDS011;37397;53.226;10.400;2023-09-19T04:01:06;3.47;;;2.25;;
51312;SDS011;37397;53.226;10.400;2023-09-19T04:03:33;5.63;;;2.22;;
51312;SDS011;37397;53.226;10.400;2023-09-19T04:06:13;4.53;;;2.47;;
51312;SDS011;37397;53.226;10.400;2023-09-19T04:08:41;5.55;;;2.10;;
51312;SDS011;37397;53.226;10.400;2023-09-19T04:11:08;7.32;;;2.42;;
51312;SDS011;37397;53.226;10.400;2023-09-19T04:13:35;5.20;;;2.58;;
51312;SDS011;37397;53.226;10.400;2023-09-19T04:16:02;7.40;;;2.40;;
51312;SDS011;37397;53.226;10.400;2023-09-19T04:18:35;6.35;;;2.20;;
51312;SDS011;37397;53.226;10.400;2023-09-19T04:21:05;7.60;;;2.30;;
51312;SDS011;37397;53.226;10.400;2023-09-19T04:23:32;7.50;;;2.55;;
51312;SDS011;37397;53.226;10.400;2023-09-19T04:25:59;7.28;;;2.70;;
51312;SDS011;37397;53.226;10.400;2023-09-19T04:28:26;8.07;;;2.78;;
51312;SDS011;37397;53.226;10.400;2023-09-19T04:30:54;8.13;;;2.72;;
51312;SDS011;37397;53.226;10.400;2023-09-19T04:33:21;9.27;;;2.97;;
51312;SDS011;37397;53.226;10.400;2023-09-19T04:35:51;6.38;;;2.70;;
51312;SDS011;37397;53.226;10.400;2023-09-19T04:38:20;7.68;;;2.58;;
51312;SDS011;37397;53.226;10.400;2023-09-19T04:40:47;6.78;;;2.45;;
51312;SDS011;37397;53.226;10.400;2023-09-19T04:43:15;9.52;;;2.83;;
51312;SDS011;37397;53.226;10.400;2023-09-19T04:45:41;9.05;;;2.88;;
51312;SDS011;37397;53.226;10.400;2023-09-19T04:48:08;10.25;;;2.60;;
51312;SDS011;37397;53.226;10.400;2023-09-19T04:50:35;6.65;;;2.17;;
51312;SDS011;37397;53.226;10.400;2023-09-19T04:53:03;7.10;;;2.80;;
51312;SDS011;37397;53.226;10.400;2023-09-19T04:55:30;7.70;;;2.55;;
51312;SDS011;37397;53.226;10.400;2023-09-19T04:57:59;6.85;;;2.70;;
51312;SDS011;37397;53.226;10.400;2023-09-19T05:00:25;9.88;;;2.60;;
51312;SDS011;37397;53.226;10.400;2023-09-19T05:02:54;8.55;;;2.53;;
51312;SDS011;37397;53.226;10.400;2023-09-19T05:05:25;7.43;;;2.42;;
51312;SDS011;37397;53.226;10.400;2023-09-19T05:07:52;4.50;;;2.10;;
51312;SDS011;37397;53.226;10.400;2023-09-19T05:10:20;7.30;;;2.78;;
51312;SDS011;37397;53.226;10.400;2023-09-19T05:12:48;6.30;;;2.30;;
51312;SDS011;37397;53.226;10.400;2023-09-19T05:15:18;8.68;;;2.38;;
51312;SDS011;37397;53.226;10.400;2023-09-19T05:17:51;8.48;;;2.55;;
51312;SDS011;37397;53.226;10.400;2023-09-19T05:20:23;9.85;;;2.75;;
51312;SDS011;37397;53.226;10.400;2023-09-19T05:23:01;7.53;;;2.35;;
51312;SDS011;37397;53.226;10.400;2023-09-19T05:25:29;9.25;;;2.63;;
51312;SDS011;37397;53.226;10.400;2023-09-19T05:28:00;5.15;;;2.58;;
51312;SDS011;37397;53.226;10.400;2023-09-19T05:30:30;7.45;;;2.45;;
51312;SDS011;37397;53.226;10.400;2023-09-19T05:32:56;8.82;;;2.80;;
51312;SDS011;37397;53.226;10.400;2023-09-19T05:35:23;7.93;;;2.40;;
51312;SDS011;37397;53.226;10.400;2023-09-19T05:37:51;8.35;;;2.55;;
51312;SDS011;37397;53.226;10.400;2023-09-19T05:40:18;9.05;;;2.88;;
51312;SDS011;37397;53.226;10.400;2023-09-19T05:42:45;9.15;;;2.92;;
51312;SDS011;37397;53.226;10.400;2023-09-19T05:45:12;8.23;;;2.63;;
51312;SDS011;37397;53.226;10.400;2023-09-19T05:47:40;11.52;;;2.92;;
51312;SDS011;37397;53.226;10.400;2023-09-19T05:50:12;11.27;;;2.92;;
51312;SDS011;37397;53.226;10.400;2023-09-19T05:52:38;8.68;;;2.90;;
51312;SDS011;37397;53.226;10.400;2023-09-19T05:55:05;7.38;;;2.60;;
51312;SDS011;37397;53.226;10.400;2023-09-19T05:57:33;6.85;;;2.38;;
51312;SDS011;37397;53.226;10.400;2023-09-19T06:00:01;6.78;;;2.50;;
51312;SDS011;37397;53.226;10.400;2023-09-19T06:02:37;10.13;;;3.10;;
51312;SDS011;37397;53.226;10.400;2023-09-19T06:05:04;9.43;;;2.95;;
51312;SDS011;37397;53.226;10.400;2023-09-19T06:07:37;10.63;;;2.78;;
51312;SDS011;37397;53.226;10.400;2023-09-19T06:10:04;10.30;;;2.72;;
51312;SDS011;37397;53.226;10.400;2023-09-19T06:12:32;9.73;;;3.05;;
51312;SDS011;37397;53.226;10.400;2023-09-19T06:15:01;14.98;;;3.47;;
51312;SDS011;37397;53.226;10.400;2023-09-19T06:17:27;11.90;;;2.63;;
51312;SDS011;37397;53.226;10.400;2023-09-19T06:19:54;9.27;;;2.83;;
51312;SDS011;37397;53.226;10.400;2023-09-19T06:22:22;9.82;;;3.00;;
51312;SDS011;37397;53.226;10.400;2023-09-19T06:24:50;7.72;;;2.92;;
51312;SDS011;37397;53.226;10.400;2023-09-19T06:27:16;8.55;;;3.13;;
51312;SDS011;37397;53.226;10.400;2023-09-19T06:29:43;9.07;;;3.20;;
51312;SDS011;37397;53.226;10.400;2023-09-19T06:32:09;8.52;;;2.88;;
51312;SDS011;37397;53.226;10.400;2023-09-19T06:34:37;10.95;;;2.83;;
51312;SDS011;37397;53.226;10.400;2023-09-19T06:37:09;5.95;;;2.35;;
51312;SDS011;37397;53.226;10.400;2023-09-19T06:39:35;10.02;;;3.33;;
51312;SDS011;37397;53.226;10.400;2023-09-19T06:42:02;10.45;;;2.88;;
51312;SDS011;37397;53.226;10.400;2023-09-19T06:44:30;11.20;;;3.25;;
51312;SDS011;37397;53.226;10.400;2023-09-19T06:46:58;11.77;;;2.75;;
51312;SDS011;37397;53.226;10.400;2023-09-19T06:49:24;8.35;;;3.13;;
51312;SDS011;37397;53.226;10.400;2023-09-19T06:51:53;9.10;;;2.72;;
51312;SDS011;37397;53.226;10.400;2023-09-19T06:54:21;10.98;;;3.17;;
51312;SDS011;37397;53.226;10.400;2023-09-19T06:56:47;12.40;;;2.80;;
51312;SDS011;37397;53.226;10.400;2023-09-19T06:59:14;11.48;;;3.40;;
51312;SDS011;37397;53.226;10.400;2023-09-19T07:01:41;11.43;;;3.15;;
51312;SDS011;37397;53.226;10.400;2023-09-19T07:04:08;9.52;;;3.05;;
51312;SDS011;37397;53.226;10.400;2023-09-19T07:06:34;13.90;;;3.40;;
51312;SDS011;37397;53.226;10.400;2023-09-19T07:09:02;11.48;;;3.28;;
51312;SDS011;37397;53.226;10.400;2023-09-19T07:11:28;12.25;;;3.25;;
51312;SDS011;37397;53.226;10.400;2023-09-19T07:13:57;13.88;;;3.20;;
51312;SDS011;37397;53.226;10.400;2023-09-19T07:16:24;12.18;;;3.28;;
51312;SDS011;37397;53.226;10.400;2023-09-19T07:18:56;10.38;;;2.70;;
51312;SDS011;37397;53.226;10.400;2023-09-19T07:21:23;10.20;;;3.53;;
51312;SDS011;37397;53.226;10.400;2023-09-19T07:23:50;10.00;;;3.30;;
51312;SDS011;37397;53.226;10.400;2023-09-19T07:26:19;12.75;;;2.90;;
51312;SDS011;37397;53.226;10.400;2023-09-19T07:28:45;13.77;;;2.92;;
51312;SDS011;37397;53.226;10.400;2023-09-19T07:31:12;11.63;;;3.00;;
51312;SDS011;37397;53.226;10.400;2023-09-19T07:33:40;12.80;;;3.40;;
51312;SDS011;37397;53.226;10.400;2023-09-19T07:36:09;15.35;;;3.90;;
51312;SDS011;37397;53.226;10.400;2023-09-19T07:38:37;13.68;;;3.70;;
51312;SDS011;37397;53.226;10.400;2023-09-19T07:41:04;13.10;;;3.60;;
51312;SDS011;37397;53.226;10.400;2023-09-19T07:43:31;14.68;;;4.05;;
51312;SDS011;37397;53.226;10.400;2023-09-19T07:46:02;8.50;;;3.10;;
51312;SDS011;37397;53.226;10.400;2023-09-19T07:48:29;14.02;;;4.10;;
51312;SDS011;37397;53.226;10.400;2023-09-19T07:50:56;9.45;;;3.60;;
51312;SDS011;37397;53.226;10.400;2023-09-19T07:53:27;10.98;;;3.90;;
51312;SDS011;37397;53.226;10.400;2023-09-19T07:56:01;12.55;;;3.70;;
51312;SDS011;37397;53.226;10.400;2023-09-19T07:58:28;13.27;;;4.40;;
51312;SDS011;37397;53.226;10.400;2023-09-19T08:00:55;9.30;;;3.58;;
51312;SDS011;37397;53.226;10.400;2023-09-19T08:03:21;11.60;;;4.07;;
51312;SDS011;37397;53.226;10.400;2023-09-19T08:05:48;10.88;;;3.78;;
51312;SDS011;37397;53.226;10.400;2023-09-19T08:08:15;11.32;;;4.15;;
51312;SDS011;37397;53.226;10.400;2023-09-19T08:10:42;10.75;;;3.78;;
51312;SDS011;37397;53.226;10.400;2023-09-19T08:13:12;12.77;;;4.13;;
51312;SDS011;37397;53.226;10.400;2023-09-19T08:15:44;10.02;;;4.05;;
51312;SDS011;37397;53.226;10.400;2023-09-19T08:18:11;12.65;;;3.83;;
51312;SDS011;37397;53.226;10.400;2023-09-19T08:20:42;10.60;;;3.55;;
51312;SDS011;37397;53.226;10.400;2023-09-19T08:23:09;11.38;;;3.88;;
51312;SDS011;37397;53.226;10.400;2023-09-19T08:25:35;9.88;;;4.13;;
51312;SDS011;37397;53.226;10.400;2023-09-19T08:28:02;12.85;;;3.50;;
51312;SDS011;37397;53.226;10.400;2023-09-19T08:30:34;12.95;;;3.45;;
51312;SDS011;37397;53.226;10.400;2023-09-19T08:33:01;12.10;;;2.97;;
51312;SDS011;37397;53.226;10.400;2023-09-19T08:35:27;12.50;;;3.47;;
51312;SDS011;37397;53.226;10.400;2023-09-19T08:37:54;10.05;;;3.33;;
51312;SDS011;37397;53.226;10.400;2023-09-19T08:40:24;11.10;;;3.13;;
51312;SDS011;37397;53.226;10.400;2023-09-19T08:42:54;12.93;;;3.50;;
51312;SDS011;37397;53.226;10.400;2023-09-19T08:45:22;11.05;;;3.03;;
51312;SDS011;37397;53.226;10.400;2023-09-19T08:47:55;13.05;;;3.17;;
51312;SDS011;37397;53.226;10.400;2023-09-19T08:50:32;11.27;;;3.53;;
51312;SDS011;37397;53.226;10.400;2023-09-19T08:53:01;9.38;;;2.97;;
51312;SDS011;37397;53.226;10.400;2023-09-19T08:55:28;10.90;;;3.30;;
51312;SDS011;37397;53.226;10.400;2023-09-19T08:57:59;12.18;;;2.97;;
51312;SDS011;37397;53.226;10.400;2023-09-19T09:00:28;9.77;;;2.63;;
51312;SDS011;37397;53.226;10.400;2023-09-19T09:02:55;10.82;;;2.90;;
51312;SDS011;37397;53.226;10.400;2023-09-19T09:05:23;15.65;;;2.95;;
51312;SDS011;37397;53.226;10.400;2023-09-19T09:07:50;12.38;;;2.95;;
51312;SDS011;37397;53.226;10.400;2023-09-19T09:10:18;10.15;;;2.40;;
51312;SDS011;37397;53.226;10.400;2023-09-19T09:12:50;12.90;;;2.92;;
51312;SDS011;37397;53.226;10.400;2023-09-19T09:15:21;12.05;;;3.40;;
51312;SDS011;37397;53.226;10.400;2023-09-19T09:17:50;14.18;;;3.42;;
51312;SDS011;37397;53.226;10.400;2023-09-19T09:20:19;7.45;;;2.45;;
51312;SDS011;37397;53.226;10.400;2023-09-19T09:22:53;10.35;;;3.13;;
51312;SDS011;37397;53.226;10.400;2023-09-19T09:25:46;12.10;;;3.13;;
51312;SDS011;37397;53.226;10.400;2023-09-19T09:28:23;9.52;;;2.78;;
51312;SDS011;37397;53.226;10.400;2023-09-19T09:30:51;8.23;;;2.63;;
51312;SDS011;37397;53.226;10.400;2023-09-19T09:33:18;9.77;;;2.90;;
51312;SDS011;37397;53.226;10.400;2023-09-19T09:38:19;11.23;;;2.45;;
51312;SDS011;37397;53.226;10.400;2023-09-19T09:40:48;12.30;;;2.90;;
51312;SDS011;37397;53.226;10.400;2023-09-19T09:43:39;6.30;;;2.38;;
51312;SDS011;37397;53.226;10.400;2023-09-19T09:51:48;12.05;;;3.28;;
51312;SDS011;37397;53.226;10.400;2023-09-19T09:54:27;12.85;;;3.45;;
51312;SDS011;37397;53.226;10.400;2023-09-19T09:57:08;9.93;;;2.78;;
51312;SDS011;37397;53.226;10.400;2023-09-19T09:59:52;8.00;;;2.65;;
51312;SDS011;37397;53.226;10.400;2023-09-19T10:02:21;10.85;;;2.97;;
51312;SDS011;37397;53.226;10.400;2023-09-19T10:04:56;9.88;;;2.60;;
51312;SDS011;37397;53.226;10.400;2023-09-19T10:07:36;8.85;;;2.50;;
51312;SDS011;37397;53.226;10.400;2023-09-19T10:10:08;7.55;;;2.15;;
51312;SDS011;37397;53.226;10.400;2023-09-19T10:12:43;7.30;;;2.22;;
51312;SDS011;37397;53.226;10.400;2023-09-19T10:15:15;9.88;;;2.97;;
51312;SDS011;37397;53.226;10.400;2023-09-19T10:17:44;8.10;;;2.75;;
51312;SDS011;37397;53.226;10.400;2023-09-19T10:20:13;10.93;;;2.60;;
51312;SDS011;37397;53.226;10.400;2023-09-19T10:22:49;11.45;;;2.80;;
51312;SDS011;37397;53.226;10.400;2023-09-19T10:25:25;10.07;;;2.80;;
51312;SDS011;37397;53.226;10.400;2023-09-19T10:27:55;10.35;;;2.95;;
51312;SDS011;37397;53.226;10.400;2023-09-19T10:30:25;13.43;;;3.08;;
51312;SDS011;37397;53.226;10.400;2023-09-19T10:32:57;8.02;;;2.70;;
51312;SDS011;37397;53.226;10.400;2023-09-19T10:35:26;10.20;;;2.97;;
51312;SDS011;37397;53.226;10.400;2023-09-19T10:37:54;8.60;;;2.30;;
51312;SDS011;37397;53.226;10.400;2023-09-19T10:40:24;8.27;;;2.17;;
51312;SDS011;37397;53.226;10.400;2023-09-19T10:42:59;10.60;;;2.38;;
51312;SDS011;37397;53.226;10.400;2023-09-19T10:45:29;10.73;;;2.80;;
51312;SDS011;37397;53.226;10.400;2023-09-19T10:47:58;10.40;;;3.03;;
51312;SDS011;37397;53.226;10.400;2023-09-19T10:50:32;10.25;;;2.70;;
51312;SDS011;37397;53.226;10.400;2023-09-19T10:53:04;8.10;;;2.22;;
51312;SDS011;37397;53.226;10.400;2023-09-19T10:55:34;9.70;;;2.70;;
51312;SDS011;37397;53.226;10.400;2023-09-19T10:58:02;9.50;;;2.40;;
51312;SDS011;37397;53.226;10.400;2023-09-19T11:03:38;9.82;;;2.58;;
51312;SDS011;37397;53.226;10.400;2023-09-19T11:06:16;8.65;;;2.50;;
51312;SDS011;37397;53.226;10.400;2023-09-19T11:08:55;9.82;;;2.55;;
51312;SDS011;37397;53.226;10.400;2023-09-19T11:11:46;8.23;;;2.67;;
51312;SDS011;37397;53.226;10.400;2023-09-19T11:30:35;8.85;;;2.38;;
51312;SDS011;37397;53.226;10.400;2023-09-19T11:33:23;9.65;;;2.42;;
51312;SDS011;37397;53.226;10.400;2023-09-19T11:36:01;7.72;;;2.55;;
51312;SDS011;37397;53.226;10.400;2023-09-19T11:43:47;11.85;;;2.40;;
51312;SDS011;37397;53.226;10.400;2023-09-19T11:46:14;6.80;;;2.50;;
51312;SDS011;37397;53.226;10.400;2023-09-19T11:48:47;9.40;;;2.40;;
51312;SDS011;37397;53.226;10.400;2023-09-19T11:51:24;6.82;;;2.55;;
51312;SDS011;37397;53.226;10.400;2023-09-19T11:53:55;8.60;;;2.50;;
51312;SDS011;37397;53.226;10.400;2023-09-19T11:56:24;9.30;;;2.55;;
51312;SDS011;37397;53.226;10.400;2023-09-19T11:58:52;9.30;;;2.75;;
51312;SDS011;37397;53.226;10.400;2023-09-19T12:01:25;9.40;;;2.90;;
51312;SDS011;37397;53.226;10.400;2023-09-19T12:03:57;8.65;;;2.40;;
51312;SDS011;37397;53.226;10.400;2023-09-19T12:06:25;9.52;;;2.72;;
51312;SDS011;37397;53.226;10.400;2023-09-19T12:08:53;7.45;;;2.75;;
51312;SDS011;37397;53.226;10.400;2023-09-19T12:11:21;8.35;;;2.70;;
51312;SDS011;37397;53.226;10.400;2023-09-19T12:13:49;9.65;;;2.40;;
51312;SDS011;37397;53.226;10.400;2023-09-19T12:16:17;7.35;;;2.38;;
51312;SDS011;37397;53.226;10.400;2023-09-19T12:18:49;9.98;;;2.80;;
51312;SDS011;37397;53.226;10.400;2023-09-19T12:21:26;9.07;;;2.50;;
51312;SDS011;37397;53.226;10.400;2023-09-19T12:23:58;11.30;;;2.53;;
51312;SDS011;37397;53.226;10.400;2023-09-19T12:26:44;12.60;;;3.08;;
51312;SDS011;37397;53.226;10.400;2023-09-19T12:29:15;10.45;;;2.83;;
51312;SDS011;37397;53.226;10.400;2023-09-19T12:31:50;7.60;;;2.75;;
51312;SDS011;37397;53.226;10.400;2023-09-19T12:34:21;9.45;;;2.88;;
51312;SDS011;37397;53.226;10.400;2023-09-19T12:36:49;10.57;;;2.97;;
51312;SDS011;37397;53.226;10.400;2023-09-19T12:39:38;10.60;;;3.05;;
51312;SDS011;37397;53.226;10.400;2023-09-19T12:42:08;7.70;;;2.58;;
51312;SDS011;37397;53.226;10.400;2023-09-19T12:44:40;9.50;;;2.90;;
51312;SDS011;37397;53.226;10.400;2023-09-19T12:47:18;8.95;;;2.72;;
51312;SDS011;37397;53.226;10.400;2023-09-19T12:52:45;8.77;;;2.85;;
51312;SDS011;37397;53.226;10.400;2023-09-19T12:55:20;12.48;;;3.08;;
51312;SDS011;37397;53.226;10.400;2023-09-19T13:00:45;11.02;;;2.63;;
51312;SDS011;37397;53.226;10.400;2023-09-19T13:03:24;10.38;;;3.17;;
51312;SDS011;37397;53.226;10.400;2023-09-19T13:08:26;8.43;;;3.30;;
51312;SDS011;37397;53.226;10.400;2023-09-19T13:13:37;10.90;;;3.55;;
51312;SDS011;37397;53.226;10.400;2023-09-19T13:16:04;10.68;;;2.80;;
51312;SDS011;37397;53.226;10.400;2023-09-19T13:18:41;8.15;;;2.47;;
51312;SDS011;37397;53.226;10.400;2023-09-19T13:21:12;10.85;;;2.88;;
51312;SDS011;37397;53.226;10.400;2023-09-19T13:23:53;10.05;;;2.92;;
51312;SDS011;37397;53.226;10.400;2023-09-19T13:26:25;11.27;;;2.97;;
51312;SDS011;37397;53.226;10.400;2023-09-19T13:28:52;13.15;;;3.50;;
51312;SDS011;37397;53.226;10.400;2023-09-19T13:31:18;11.18;;;3.15;;
51312;SDS011;37397;53.226;10.400;2023-09-19T13:33:47;13.27;;;3.70;;
51312;SDS011;37397;53.226;10.400;2023-09-19T13:36:14;13.38;;;3.40;;
51312;SDS011;37397;53.226;10.400;2023-09-19T13:38:41;13.73;;;3.22;;
51312;SDS011;37397;53.226;10.400;2023-09-19T13:41:13;11.50;;;3.35;;
51312;SDS011;37397;53.226;10.400;2023-09-19T13:43:40;8.88;;;3.35;;
51312;SDS011;37397;53.226;10.400;2023-09-19T13:46:06;8.98;;;3.08;;
51312;SDS011;37397;53.226;10.400;2023-09-19T13:48:34;11.75;;;3.28;;
51312;SDS011;37397;53.226;10.400;2023-09-19T13:51:02;12.48;;;3.22;;
51312;SDS011;37397;53.226;10.400;2023-09-19T13:53:29;11.68;;;3.15;;
51312;SDS011;37397;53.226;10.400;2023-09-19T13:55:56;11.82;;;3.53;;
51312;SDS011;37397;53.226;10.400;2023-09-19T13:58:24;10.00;;;3.20;;
51312;SDS011;37397;53.226;10.400;2023-09-19T14:00:51;12.40;;;2.95;;
51312;SDS011;37397;53.226;10.400;2023-09-19T14:03:21;8.77;;;3.22;;
51312;SDS011;37397;53.226;10.400;2023-09-19T14:05:48;15.38;;;3.97;;
51312;SDS011;37397;53.226;10.400;2023-09-19T14:08:17;11.35;;;3.38;;
51312;SDS011;37397;53.226;10.400;2023-09-19T14:10:44;8.50;;;2.80;;
51312;SDS011;37397;53.226;10.400;2023-09-19T14:13:11;10.40;;;3.47;;
51312;SDS011;37397;53.226;10.400;2023-09-19T14:15:40;12.00;;;3.67;;
51312;SDS011;37397;53.226;10.400;2023-09-19T14:18:06;12.18;;;3.50;;
51312;SDS011;37397;53.226;10.400;2023-09-19T14:20:37;8.68;;;3.22;;
51312;SDS011;37397;53.226;10.400;2023-09-19T14:23:04;13.40;;;3.85;;
51312;SDS011;37397;53.226;10.400;2023-09-19T14:25:31;12.70;;;3.60;;
51312;SDS011;37397;53.226;10.400;2023-09-19T14:27:57;9.55;;;3.33;;
51312;SDS011;37397;53.226;10.400;2023-09-19T14:30:24;9.70;;;3.05;;
51312;SDS011;37397;53.226;10.400;2023-09-19T14:32:51;9.77;;;3.30;;
51312;SDS011;37397;53.226;10.400;2023-09-19T14:35:18;11.48;;;3.70;;
51312;SDS011;37397;53.226;10.400;2023-09-19T14:37:45;9.23;;;3.15;;
51312;SDS011;37397;53.226;10.400;2023-09-19T14:40:12;9.50;;;3.38;;
51312;SDS011;37397;53.226;10.400;2023-09-19T14:42:41;9.18;;;3.17;;
51312;SDS011;37397;53.226;10.400;2023-09-19T14:45:10;9.85;;;3.35;;
51312;SDS011;37397;53.226;10.400;2023-09-19T14:47:37;9.50;;;3.20;;
51312;SDS011;37397;53.226;10.400;2023-09-19T14:50:04;10.88;;;3.80;;
51312;SDS011;37397;53.226;10.400;2023-09-19T14:52:33;8.63;;;3.38;;
51312;SDS011;37397;53.226;10.400;2023-09-19T14:55:00;12.27;;;3.45;;
51312;SDS011;37397;53.226;10.400;2023-09-19T14:57:28;12.10;;;3.45;;
51312;SDS011;37397;53.226;10.400;2023-09-19T14:59:55;10.65;;;3.15;;
51312;SDS011;37397;53.226;10.400;2023-09-19T15:02:22;8.60;;;2.80;;
51312;SDS011;37397;53.226;10.400;2023-09-19T15:04:48;8.20;;;3.22;;
51312;SDS011;37397;53.226;10.400;2023-09-19T15:07:17;10.43;;;3.42;;
51312;SDS011;37397;53.226;10.400;2023-09-19T15:09:44;12.15;;;3.38;;
51312;SDS011;37397;53.226;10.400;2023-09-19T15:12:11;9.65;;;3.58;;
51312;SDS011;37397;53.226;10.400;2023-09-19T15:14:40;11.82;;;3.63;;
51312;SDS011;37397;53.226;10.400;2023-09-19T15:17:10;10.52;;;3.25;;
51312;SDS011;37397;53.226;10.400;2023-09-19T15:19:37;9.13;;;3.28;;
51312;SDS011;37397;53.226;10.400;2023-09-19T15:22:04;10.32;;;3.50;;
51312;SDS011;37397;53.226;10.400;2023-09-19T15:24:31;8.52;;;3.05;;
51312;SDS011;37397;53.226;10.400;2023-09-19T15:26:58;10.73;;;2.65;;
51312;SDS011;37397;53.226;10.400;2023-09-19T15:29:27;8.63;;;3.05;;
51312;SDS011;37397;53.226;10.400;2023-09-19T15:31:54;9.40;;;3.38;;
51312;SDS011;37397;53.226;10.400;2023-09-19T15:34:25;10.02;;;3.28;;